sensor_id;sensor_type;location;lat;lon;timestamp;P1;durP1;ratioP1;P2;durP2;ratioP2
55300;SDS011;58302;51.446;-2.000;2023-04-01T00:00:32;1.17;;;0.90;;
55300;SDS011;58302;51.446;-2.000;2023-04-01T00:02:58;0.45;;;0.45;;
55300;SDS011;58302;51.446;-2.000;2023-04-01T00:05:24;0.35;;;0.35;;
55300;SDS011;58302;51.446;-2.000;2023-04-01T00:07:50;4.28;;;1.00;;
55300;SDS011;58302;51.446;-2.000;2023-04-01T00:10:17;0.22;;;0.22;;
55300;SDS011;58302;51.446;-2.000;2023-04-01T00:12:43;1.45;;;1.00;;
55300;SDS011;58302;51.446;-2.000;2023-04-01T00:15:10;0.00;;;0.00;;
55300;SDS011;58302;51.446;-2.000;2023-04-01T00:17:37;2.45;;;0.80;;
55300;SDS011;58302;51.446;-2.000;2023-04-01T00:20:04;1.10;;;0.28;;
55300;SDS011;58302;51.446;-2.000;2023-04-01T00:22:32;0.28;;;0.28;;
55300;SDS011;58302;51.446;-2.000;2023-04-01T00:24:59;0.08;;;0.08;;
55300;SDS011;58302;51.446;-2.000;2023-04-01T00:27:25;0.40;;;0.40;;
55300;SDS011;58302;51.446;-2.000;2023-04-01T00:29:51;2.45;;;1.27;;
55300;SDS011;58302;51.446;-2.000;2023-04-01T00:32:17;0.40;;;0.40;;
55300;SDS011;58302;51.446;-2.000;2023-04-01T00:34:43;0.40;;;0.40;;
55300;SDS011;58302;51.446;-2.000;2023-04-01T00:37:10;0.45;;;0.45;;
55300;SDS011;58302;51.446;-2.000;2023-04-01T00:39:36;0.00;;;0.00;;
55300;SDS011;58302;51.446;-2.000;2023-04-01T00:42:03;1.27;;;1.00;;
55300;SDS011;58302;51.446;-2.000;2023-04-01T00:44:30;0.47;;;0.47;;
55300;SDS011;58302;51.446;-2.000;2023-04-01T00:46:58;0.05;;;0.05;;
55300;SDS011;58302;51.446;-2.000;2023-04-01T00:49:26;0.28;;;0.28;;
55300;SDS011;58302;51.446;-2.000;2023-04-01T00:51:55;0.05;;;0.05;;
55300;SDS011;58302;51.446;-2.000;2023-04-01T00:54:29;0.30;;;0.28;;
55300;SDS011;58302;51.446;-2.000;2023-04-01T00:56:57;0.30;;;0.30;;
55300;SDS011;58302;51.446;-2.000;2023-04-01T00:59:29;0.57;;;0.50;;
55300;SDS011;58302;51.446;-2.000;2023-04-01T01:01:57;0.55;;;0.55;;
55300;SDS011;58302;51.446;-2.000;2023-04-01T01:15:20;0.43;;;0.43;;
55300;SDS011;58302;51.446;-2.000;2023-04-01T01:32:05;0.65;;;0.65;;
55300;SDS011;58302;51.446;-2.000;2023-04-01T01:38:00;0.20;;;0.20;;
55300;SDS011;58302;51.446;-2.000;2023-04-01T01:40:29;1.77;;;1.67;;
55300;SDS011;58302;51.446;-2.000;2023-04-01T01:42:59;0.77;;;0.77;;
55300;SDS011;58302;51.446;-2.000;2023-04-01T01:45:31;0.35;;;0.35;;
55300;SDS011;58302;51.446;-2.000;2023-04-01T01:48:01;0.90;;;0.75;;
55300;SDS011;58302;51.446;-2.000;2023-04-01T01:50:30;0.65;;;0.65;;
55300;SDS011;58302;51.446;-2.000;2023-04-01T01:53:01;0.45;;;0.45;;
55300;SDS011;58302;51.446;-2.000;2023-04-01T01:55:32;1.15;;;0.70;;
55300;SDS011;58302;51.446;-2.000;2023-04-01T01:58:11;0.75;;;0.43;;
55300;SDS011;58302;51.446;-2.000;2023-04-01T02:00:57;0.45;;;0.40;;
55300;SDS011;58302;51.446;-2.000;2023-04-01T02:03:27;0.43;;;0.43;;
55300;SDS011;58302;51.446;-2.000;2023-04-01T02:05:57;0.55;;;0.55;;
55300;SDS011;58302;51.446;-2.000;2023-04-01T02:08:26;1.77;;;1.65;;
55300;SDS011;58302;51.446;-2.000;2023-04-01T02:11:01;0.03;;;0.03;;
55300;SDS011;58302;51.446;-2.000;2023-04-01T02:16:12;0.50;;;0.50;;
55300;SDS011;58302;51.446;-2.000;2023-04-01T02:18:42;0.38;;;0.38;;
55300;SDS011;58302;51.446;-2.000;2023-04-01T02:21:11;6.43;;;1.02;;
55300;SDS011;58302;51.446;-2.000;2023-04-01T02:23:38;2.55;;;1.48;;
55300;SDS011;58302;51.446;-2.000;2023-04-01T02:26:05;0.20;;;0.20;;
55300;SDS011;58302;51.446;-2.000;2023-04-01T02:28:34;0.75;;;0.55;;
55300;SDS011;58302;51.446;-2.000;2023-04-01T02:31:02;0.50;;;0.25;;
55300;SDS011;58302;51.446;-2.000;2023-04-01T02:33:30;7.88;;;2.28;;
55300;SDS011;58302;51.446;-2.000;2023-04-01T02:35:57;1.17;;;0.85;;
55300;SDS011;58302;51.446;-2.000;2023-04-01T02:38:24;0.30;;;0.30;;
55300;SDS011;58302;51.446;-2.000;2023-04-01T02:40:56;0.52;;;0.52;;
55300;SDS011;58302;51.446;-2.000;2023-04-01T02:43:23;0.60;;;0.60;;
55300;SDS011;58302;51.446;-2.000;2023-04-01T02:45:49;2.65;;;1.08;;
55300;SDS011;58302;51.446;-2.000;2023-04-01T02:48:15;1.73;;;1.63;;
55300;SDS011;58302;51.446;-2.000;2023-04-01T02:50:41;1.17;;;0.95;;
55300;SDS011;58302;51.446;-2.000;2023-04-01T02:53:07;1.92;;;1.13;;
55300;SDS011;58302;51.446;-2.000;2023-04-01T02:55:34;0.30;;;0.30;;
55300;SDS011;58302;51.446;-2.000;2023-04-01T02:58:00;0.25;;;0.25;;
55300;SDS011;58302;51.446;-2.000;2023-04-01T03:00:26;0.88;;;0.88;;
55300;SDS011;58302;51.446;-2.000;2023-04-01T03:02:52;0.63;;;0.63;;
55300;SDS011;58302;51.446;-2.000;2023-04-01T03:05:19;0.50;;;0.50;;
55300;SDS011;58302;51.446;-2.000;2023-04-01T03:07:45;1.02;;;0.98;;
55300;SDS011;58302;51.446;-2.000;2023-04-01T03:10:11;1.30;;;1.20;;
55300;SDS011;58302;51.446;-2.000;2023-04-01T03:12:37;0.45;;;0.45;;
55300;SDS011;58302;51.446;-2.000;2023-04-01T03:15:03;0.38;;;0.13;;
55300;SDS011;58302;51.446;-2.000;2023-04-01T03:17:29;0.30;;;0.30;;
55300;SDS011;58302;51.446;-2.000;2023-04-01T03:19:55;2.90;;;1.08;;
55300;SDS011;58302;51.446;-2.000;2023-04-01T03:22:21;0.00;;;0.00;;
55300;SDS011;58302;51.446;-2.000;2023-04-01T03:24:47;0.73;;;0.73;;
55300;SDS011;58302;51.446;-2.000;2023-04-01T03:27:14;0.52;;;0.52;;
55300;SDS011;58302;51.446;-2.000;2023-04-01T03:29:40;0.57;;;0.57;;
55300;SDS011;58302;51.446;-2.000;2023-04-01T03:32:06;0.63;;;0.50;;
55300;SDS011;58302;51.446;-2.000;2023-04-01T03:34:32;0.30;;;0.30;;
55300;SDS011;58302;51.446;-2.000;2023-04-01T03:36:58;0.43;;;0.32;;
55300;SDS011;58302;51.446;-2.000;2023-04-01T03:39:24;0.38;;;0.38;;
55300;SDS011;58302;51.446;-2.000;2023-04-01T03:41:50;0.15;;;0.15;;
55300;SDS011;58302;51.446;-2.000;2023-04-01T03:44:16;0.43;;;0.43;;
55300;SDS011;58302;51.446;-2.000;2023-04-01T03:46:42;0.43;;;0.43;;
55300;SDS011;58302;51.446;-2.000;2023-04-01T03:49:09;0.15;;;0.15;;
55300;SDS011;58302;51.446;-2.000;2023-04-01T03:51:39;0.70;;;0.70;;
55300;SDS011;58302;51.446;-2.000;2023-04-01T03:54:06;0.20;;;0.20;;
55300;SDS011;58302;51.446;-2.000;2023-04-01T03:56:32;0.45;;;0.45;;
55300;SDS011;58302;51.446;-2.000;2023-04-01T03:58:58;0.63;;;0.63;;
55300;SDS011;58302;51.446;-2.000;2023-04-01T04:01:27;0.28;;;0.28;;
55300;SDS011;58302;51.446;-2.000;2023-04-01T04:03:55;7.68;;;2.28;;
55300;SDS011;58302;51.446;-2.000;2023-04-01T04:06:22;0.52;;;0.52;;
55300;SDS011;58302;51.446;-2.000;2023-04-01T04:08:49;0.50;;;0.50;;
55300;SDS011;58302;51.446;-2.000;2023-04-01T04:11:15;0.20;;;0.20;;
55300;SDS011;58302;51.446;-2.000;2023-04-01T04:13:42;0.43;;;0.43;;
55300;SDS011;58302;51.446;-2.000;2023-04-01T04:16:09;1.65;;;1.48;;
55300;SDS011;58302;51.446;-2.000;2023-04-01T04:18:36;5.53;;;0.90;;
55300;SDS011;58302;51.446;-2.000;2023-04-01T04:21:02;0.82;;;0.82;;
55300;SDS011;58302;51.446;-2.000;2023-04-01T04:23:29;0.32;;;0.32;;
55300;SDS011;58302;51.446;-2.000;2023-04-01T04:25:57;0.50;;;0.50;;
55300;SDS011;58302;51.446;-2.000;2023-04-01T04:28:25;0.00;;;0.00;;
55300;SDS011;58302;51.446;-2.000;2023-04-01T04:30:52;0.28;;;0.28;;
55300;SDS011;58302;51.446;-2.000;2023-04-01T04:33:18;0.17;;;0.17;;
55300;SDS011;58302;51.446;-2.000;2023-04-01T04:35:45;0.45;;;0.45;;
55300;SDS011;58302;51.446;-2.000;2023-04-01T04:38:11;0.45;;;0.20;;
55300;SDS011;58302;51.446;-2.000;2023-04-01T04:40:37;0.88;;;0.88;;
55300;SDS011;58302;51.446;-2.000;2023-04-01T04:43:04;2.10;;;1.95;;
55300;SDS011;58302;51.446;-2.000;2023-04-01T04:45:30;0.17;;;0.17;;
55300;SDS011;58302;51.446;-2.000;2023-04-01T04:47:56;0.20;;;0.20;;
55300;SDS011;58302;51.446;-2.000;2023-04-01T04:50:22;0.57;;;0.57;;
55300;SDS011;58302;51.446;-2.000;2023-04-01T04:52:50;1.17;;;1.15;;
55300;SDS011;58302;51.446;-2.000;2023-04-01T04:55:16;0.32;;;0.32;;
55300;SDS011;58302;51.446;-2.000;2023-04-01T04:57:42;0.10;;;0.10;;
55300;SDS011;58302;51.446;-2.000;2023-04-01T05:00:08;1.30;;;1.20;;
55300;SDS011;58302;51.446;-2.000;2023-04-01T05:02:38;1.95;;;0.43;;
55300;SDS011;58302;51.446;-2.000;2023-04-01T05:05:04;0.40;;;0.35;;
55300;SDS011;58302;51.446;-2.000;2023-04-01T05:07:31;0.32;;;0.30;;
55300;SDS011;58302;51.446;-2.000;2023-04-01T05:09:56;0.40;;;0.40;;
55300;SDS011;58302;51.446;-2.000;2023-04-01T05:12:22;0.85;;;0.85;;
55300;SDS011;58302;51.446;-2.000;2023-04-01T05:14:48;0.88;;;0.80;;
55300;SDS011;58302;51.446;-2.000;2023-04-01T05:17:14;2.50;;;0.65;;
55300;SDS011;58302;51.446;-2.000;2023-04-01T05:19:40;0.50;;;0.50;;
55300;SDS011;58302;51.446;-2.000;2023-04-01T05:22:06;0.28;;;0.28;;
55300;SDS011;58302;51.446;-2.000;2023-04-01T05:24:32;0.03;;;0.03;;
55300;SDS011;58302;51.446;-2.000;2023-04-01T05:26:58;0.70;;;0.70;;
55300;SDS011;58302;51.446;-2.000;2023-04-01T05:29:25;0.00;;;0.00;;
55300;SDS011;58302;51.446;-2.000;2023-04-01T05:31:52;0.57;;;0.57;;
55300;SDS011;58302;51.446;-2.000;2023-04-01T05:34:18;0.00;;;0.00;;
55300;SDS011;58302;51.446;-2.000;2023-04-01T05:36:44;0.22;;;0.22;;
55300;SDS011;58302;51.446;-2.000;2023-04-01T05:39:10;0.13;;;0.13;;
55300;SDS011;58302;51.446;-2.000;2023-04-01T05:41:36;1.10;;;0.98;;
55300;SDS011;58302;51.446;-2.000;2023-04-01T05:44:02;9.65;;;1.00;;
55300;SDS011;58302;51.446;-2.000;2023-04-01T05:46:30;0.40;;;0.40;;
55300;SDS011;58302;51.446;-2.000;2023-04-01T05:48:56;0.20;;;0.20;;
55300;SDS011;58302;51.446;-2.000;2023-04-01T05:51:23;0.00;;;0.00;;
55300;SDS011;58302;51.446;-2.000;2023-04-01T05:53:49;0.40;;;0.30;;
55300;SDS011;58302;51.446;-2.000;2023-04-01T05:56:15;1.75;;;0.35;;
55300;SDS011;58302;51.446;-2.000;2023-04-01T05:58:41;0.20;;;0.20;;
55300;SDS011;58302;51.446;-2.000;2023-04-01T06:01:07;0.60;;;0.60;;
55300;SDS011;58302;51.446;-2.000;2023-04-01T06:03:35;0.28;;;0.28;;
55300;SDS011;58302;51.446;-2.000;2023-04-01T06:06:02;0.00;;;0.00;;
55300;SDS011;58302;51.446;-2.000;2023-04-01T06:08:29;1.02;;;0.45;;
55300;SDS011;58302;51.446;-2.000;2023-04-01T06:16:30;0.00;;;0.00;;
55300;SDS011;58302;51.446;-2.000;2023-04-01T06:21:43;0.00;;;0.00;;
55300;SDS011;58302;51.446;-2.000;2023-04-01T06:27:10;0.00;;;0.00;;
55300;SDS011;58302;51.446;-2.000;2023-04-01T06:29:51;0.47;;;0.47;;
55300;SDS011;58302;51.446;-2.000;2023-04-01T06:35:49;0.52;;;0.30;;
55300;SDS011;58302;51.446;-2.000;2023-04-01T06:49:21;0.00;;;0.00;;
55300;SDS011;58302;51.446;-2.000;2023-04-01T06:51:53;0.00;;;0.00;;
55300;SDS011;58302;51.446;-2.000;2023-04-01T06:54:34;0.77;;;0.77;;
55300;SDS011;58302;51.446;-2.000;2023-04-01T06:59:50;1.08;;;0.35;;
55300;SDS011;58302;51.446;-2.000;2023-04-01T07:02:28;0.00;;;0.00;;
55300;SDS011;58302;51.446;-2.000;2023-04-01T07:05:05;0.38;;;0.38;;
55300;SDS011;58302;51.446;-2.000;2023-04-01T07:07:36;0.10;;;0.10;;
55300;SDS011;58302;51.446;-2.000;2023-04-01T07:10:11;0.20;;;0.20;;
55300;SDS011;58302;51.446;-2.000;2023-04-01T07:12:43;0.35;;;0.20;;
55300;SDS011;58302;51.446;-2.000;2023-04-01T07:17:57;0.00;;;0.00;;
55300;SDS011;58302;51.446;-2.000;2023-04-01T07:22:58;0.00;;;0.00;;
55300;SDS011;58302;51.446;-2.000;2023-04-01T07:25:30;0.10;;;0.10;;
55300;SDS011;58302;51.446;-2.000;2023-04-01T07:28:06;1.20;;;0.93;;
55300;SDS011;58302;51.446;-2.000;2023-04-01T07:33:25;0.00;;;0.00;;
55300;SDS011;58302;51.446;-2.000;2023-04-01T07:36:10;0.20;;;0.20;;
55300;SDS011;58302;51.446;-2.000;2023-04-01T07:46:41;0.20;;;0.20;;
55300;SDS011;58302;51.446;-2.000;2023-04-01T07:52:25;0.00;;;0.00;;
55300;SDS011;58302;51.446;-2.000;2023-04-01T07:55:00;0.10;;;0.10;;
55300;SDS011;58302;51.446;-2.000;2023-04-01T07:57:37;7.22;;;1.92;;
55300;SDS011;58302;51.446;-2.000;2023-04-01T08:00:16;0.73;;;0.47;;
55300;SDS011;58302;51.446;-2.000;2023-04-01T08:05:41;0.47;;;0.47;;
55300;SDS011;58302;51.446;-2.000;2023-04-01T08:11:11;0.25;;;0.25;;
55300;SDS011;58302;51.446;-2.000;2023-04-01T08:13:45;0.00;;;0.00;;
55300;SDS011;58302;51.446;-2.000;2023-04-01T08:22:43;0.75;;;0.70;;
55300;SDS011;58302;51.446;-2.000;2023-04-01T08:24:53;0.20;;;0.20;;
55300;SDS011;58302;51.446;-2.000;2023-04-01T08:27:26;0.85;;;0.85;;
55300;SDS011;58302;51.446;-2.000;2023-04-01T08:30:16;0.43;;;0.40;;
55300;SDS011;58302;51.446;-2.000;2023-04-01T08:32:47;0.57;;;0.40;;
55300;SDS011;58302;51.446;-2.000;2023-04-01T08:35:37;0.40;;;0.40;;
55300;SDS011;58302;51.446;-2.000;2023-04-01T08:38:19;0.00;;;0.00;;
55300;SDS011;58302;51.446;-2.000;2023-04-01T09:00:19;0.73;;;0.73;;
55300;SDS011;58302;51.446;-2.000;2023-04-01T09:11:17;1.27;;;1.17;;
55300;SDS011;58302;51.446;-2.000;2023-04-01T09:24:56;3.35;;;2.40;;
55300;SDS011;58302;51.446;-2.000;2023-04-01T09:27:55;1.73;;;1.38;;
55300;SDS011;58302;51.446;-2.000;2023-04-01T09:36:07;0.13;;;0.13;;
55300;SDS011;58302;51.446;-2.000;2023-04-01T09:41:32;0.30;;;0.30;;
55300;SDS011;58302;51.446;-2.000;2023-04-01T09:46:53;1.17;;;0.95;;
55300;SDS011;58302;51.446;-2.000;2023-04-01T10:00:18;0.30;;;0.30;;
55300;SDS011;58302;51.446;-2.000;2023-04-01T10:10:47;0.08;;;0.08;;
55300;SDS011;58302;51.446;-2.000;2023-04-01T10:13:35;0.00;;;0.00;;
55300;SDS011;58302;51.446;-2.000;2023-04-01T10:16:12;0.80;;;0.75;;
55300;SDS011;58302;51.446;-2.000;2023-04-01T10:18:56;0.35;;;0.35;;
55300;SDS011;58302;51.446;-2.000;2023-04-01T10:27:02;0.70;;;0.70;;
55300;SDS011;58302;51.446;-2.000;2023-04-01T10:56:51;0.13;;;0.13;;
55300;SDS011;58302;51.446;-2.000;2023-04-01T11:05:17;0.45;;;0.45;;
55300;SDS011;58302;51.446;-2.000;2023-04-01T11:14:02;0.47;;;0.47;;
55300;SDS011;58302;51.446;-2.000;2023-04-01T11:19:31;0.40;;;0.40;;
55300;SDS011;58302;51.446;-2.000;2023-04-01T11:25:39;0.47;;;0.47;;
55300;SDS011;58302;51.446;-2.000;2023-04-01T11:28:09;0.32;;;0.32;;
55300;SDS011;58302;51.446;-2.000;2023-04-01T11:31:40;1.67;;;1.60;;
55300;SDS011;58302;51.446;-2.000;2023-04-01T11:34:05;0.30;;;0.30;;
55300;SDS011;58302;51.446;-2.000;2023-04-01T11:36:52;0.73;;;0.47;;
55300;SDS011;58302;51.446;-2.000;2023-04-01T11:39:37;0.63;;;0.63;;
55300;SDS011;58302;51.446;-2.000;2023-04-01T11:48:24;0.65;;;0.65;;
55300;SDS011;58302;51.446;-2.000;2023-04-01T11:51:13;0.88;;;0.65;;
55300;SDS011;58302;51.446;-2.000;2023-04-01T12:01:59;0.75;;;0.75;;
55300;SDS011;58302;51.446;-2.000;2023-04-01T12:10:20;9.25;;;5.35;;
55300;SDS011;58302;51.446;-2.000;2023-04-01T12:18:46;12.50;;;7.43;;
55300;SDS011;58302;51.446;-2.000;2023-04-01T12:21:24;15.32;;;10.27;;
55300;SDS011;58302;51.446;-2.000;2023-04-01T12:24:52;13.93;;;9.30;;
55300;SDS011;58302;51.446;-2.000;2023-04-01T12:27:05;15.35;;;9.00;;
55300;SDS011;58302;51.446;-2.000;2023-04-01T12:44:59;12.32;;;7.25;;
55300;SDS011;58302;51.446;-2.000;2023-04-01T13:01:14;12.25;;;7.53;;
55300;SDS011;58302;51.446;-2.000;2023-04-01T13:12:40;18.27;;;10.30;;
55300;SDS011;58302;51.446;-2.000;2023-04-01T13:23:52;13.15;;;8.75;;
55300;SDS011;58302;51.446;-2.000;2023-04-01T13:43:04;8.98;;;5.65;;
55300;SDS011;58302;51.446;-2.000;2023-04-01T13:54:15;7.28;;;5.07;;
55300;SDS011;58302;51.446;-2.000;2023-04-01T14:05:39;4.72;;;3.35;;
55300;SDS011;58302;51.446;-2.000;2023-04-01T14:08:24;6.97;;;3.50;;
55300;SDS011;58302;51.446;-2.000;2023-04-01T14:11:19;3.90;;;2.67;;
55300;SDS011;58302;51.446;-2.000;2023-04-01T14:20:15;4.32;;;3.28;;
55300;SDS011;58302;51.446;-2.000;2023-04-01T14:36:55;2.50;;;1.90;;
55300;SDS011;58302;51.446;-2.000;2023-04-01T14:47:48;2.65;;;1.80;;
55300;SDS011;58302;51.446;-2.000;2023-04-01T14:50:29;3.10;;;1.95;;
55300;SDS011;58302;51.446;-2.000;2023-04-01T14:58:13;3.60;;;2.03;;
55300;SDS011;58302;51.446;-2.000;2023-04-01T15:03:32;4.10;;;2.30;;
55300;SDS011;58302;51.446;-2.000;2023-04-01T15:09:06;4.07;;;2.45;;
55300;SDS011;58302;51.446;-2.000;2023-04-01T15:23:19;2.55;;;2.30;;
55300;SDS011;58302;51.446;-2.000;2023-04-01T15:36:40;5.63;;;2.17;;
55300;SDS011;58302;51.446;-2.000;2023-04-01T15:39:18;3.45;;;1.92;;
55300;SDS011;58302;51.446;-2.000;2023-04-01T15:47:42;2.35;;;2.15;;
55300;SDS011;58302;51.446;-2.000;2023-04-01T15:56:09;3.70;;;2.15;;
55300;SDS011;58302;51.446;-2.000;2023-04-01T15:59:09;4.40;;;2.38;;
55300;SDS011;58302;51.446;-2.000;2023-04-01T16:05:41;4.68;;;2.30;;
55300;SDS011;58302;51.446;-2.000;2023-04-01T16:08:02;3.50;;;2.20;;
55300;SDS011;58302;51.446;-2.000;2023-04-01T16:10:59;2.58;;;2.03;;
55300;SDS011;58302;51.446;-2.000;2023-04-01T16:13:48;2.40;;;1.92;;
55300;SDS011;58302;51.446;-2.000;2023-04-01T16:24:51;4.13;;;2.60;;
55300;SDS011;58302;51.446;-2.000;2023-04-01T16:27:44;3.15;;;2.28;;
55300;SDS011;58302;51.446;-2.000;2023-04-01T16:30:38;2.20;;;2.00;;
55300;SDS011;58302;51.446;-2.000;2023-04-01T16:33:14;2.70;;;1.85;;
55300;SDS011;58302;51.446;-2.000;2023-04-01T16:41:20;2.15;;;1.70;;
55300;SDS011;58302;51.446;-2.000;2023-04-01T16:44:43;2.35;;;1.38;;
55300;SDS011;58302;51.446;-2.000;2023-04-01T16:46:46;1.43;;;1.23;;
55300;SDS011;58302;51.446;-2.000;2023-04-01T16:51:48;1.40;;;1.30;;
55300;SDS011;58302;51.446;-2.000;2023-04-01T16:54:39;1.30;;;1.20;;
55300;SDS011;58302;51.446;-2.000;2023-04-01T16:57:25;2.40;;;1.27;;
55300;SDS011;58302;51.446;-2.000;2023-04-01T17:02:38;1.63;;;1.30;;
55300;SDS011;58302;51.446;-2.000;2023-04-01T17:05:13;2.65;;;1.30;;
55300;SDS011;58302;51.446;-2.000;2023-04-01T17:21:14;2.50;;;1.45;;
55300;SDS011;58302;51.446;-2.000;2023-04-01T17:23:51;1.42;;;1.23;;
55300;SDS011;58302;51.446;-2.000;2023-04-01T17:26:32;2.33;;;1.33;;
55300;SDS011;58302;51.446;-2.000;2023-04-01T17:32:15;1.85;;;1.23;;
55300;SDS011;58302;51.446;-2.000;2023-04-01T17:48:49;1.63;;;1.20;;
55300;SDS011;58302;51.446;-2.000;2023-04-01T18:02:42;1.20;;;1.10;;
55300;SDS011;58302;51.446;-2.000;2023-04-01T18:07:56;0.73;;;0.73;;
55300;SDS011;58302;51.446;-2.000;2023-04-01T18:10:41;1.08;;;1.00;;
55300;SDS011;58302;51.446;-2.000;2023-04-01T18:16:12;1.70;;;1.00;;
55300;SDS011;58302;51.446;-2.000;2023-04-01T18:21:23;2.25;;;1.60;;
55300;SDS011;58302;51.446;-2.000;2023-04-01T18:26:26;3.35;;;1.42;;
55300;SDS011;58302;51.446;-2.000;2023-04-01T18:29:04;1.48;;;1.02;;
55300;SDS011;58302;51.446;-2.000;2023-04-01T18:31:43;2.05;;;1.23;;
55300;SDS011;58302;51.446;-2.000;2023-04-01T18:37:25;3.08;;;1.05;;
55300;SDS011;58302;51.446;-2.000;2023-04-01T18:40:43;1.42;;;1.25;;
55300;SDS011;58302;51.446;-2.000;2023-04-01T18:43:00;2.13;;;1.23;;
55300;SDS011;58302;51.446;-2.000;2023-04-01T18:45:36;2.25;;;1.42;;
55300;SDS011;58302;51.446;-2.000;2023-04-01T18:48:30;1.77;;;1.30;;
55300;SDS011;58302;51.446;-2.000;2023-04-01T18:51:20;1.85;;;1.67;;
55300;SDS011;58302;51.446;-2.000;2023-04-01T18:56:29;4.38;;;1.52;;
55300;SDS011;58302;51.446;-2.000;2023-04-01T19:04:43;2.67;;;1.15;;
55300;SDS011;58302;51.446;-2.000;2023-04-01T19:10:16;1.50;;;1.17;;
55300;SDS011;58302;51.446;-2.000;2023-04-01T19:15:41;2.70;;;2.08;;
55300;SDS011;58302;51.446;-2.000;2023-04-01T19:18:19;3.08;;;1.40;;
55300;SDS011;58302;51.446;-2.000;2023-04-01T19:21:16;3.00;;;2.00;;
55300;SDS011;58302;51.446;-2.000;2023-04-01T19:24:05;1.60;;;1.20;;
55300;SDS011;58302;51.446;-2.000;2023-04-01T19:33:01;1.35;;;1.02;;
55300;SDS011;58302;51.446;-2.000;2023-04-01T19:35:52;4.50;;;1.35;;
55300;SDS011;58302;51.446;-2.000;2023-04-01T19:38:39;1.10;;;0.98;;
55300;SDS011;58302;51.446;-2.000;2023-04-01T19:49:12;2.00;;;1.48;;
55300;SDS011;58302;51.446;-2.000;2023-04-01T19:56:49;1.88;;;1.52;;
55300;SDS011;58302;51.446;-2.000;2023-04-01T20:01:59;1.83;;;1.40;;
55300;SDS011;58302;51.446;-2.000;2023-04-01T20:04:32;1.83;;;1.35;;
55300;SDS011;58302;51.446;-2.000;2023-04-01T20:07:07;1.23;;;1.13;;
55300;SDS011;58302;51.446;-2.000;2023-04-01T20:14:51;0.80;;;0.77;;
55300;SDS011;58302;51.446;-2.000;2023-04-01T20:17:23;1.30;;;1.00;;
55300;SDS011;58302;51.446;-2.000;2023-04-01T20:19:57;3.35;;;1.10;;
55300;SDS011;58302;51.446;-2.000;2023-04-01T20:24:59;0.90;;;0.90;;
55300;SDS011;58302;51.446;-2.000;2023-04-01T20:27:38;1.33;;;1.20;;
55300;SDS011;58302;51.446;-2.000;2023-04-01T20:47:16;2.28;;;1.10;;
55300;SDS011;58302;51.446;-2.000;2023-04-01T20:52:42;2.45;;;1.40;;
55300;SDS011;58302;51.446;-2.000;2023-04-01T20:55:47;1.60;;;1.13;;
55300;SDS011;58302;51.446;-2.000;2023-04-01T21:01:26;2.30;;;1.50;;
55300;SDS011;58302;51.446;-2.000;2023-04-01T21:12:21;2.00;;;1.80;;
55300;SDS011;58302;51.446;-2.000;2023-04-01T21:25:54;2.70;;;1.30;;
55300;SDS011;58302;51.446;-2.000;2023-04-01T21:33:42;1.98;;;1.30;;
55300;SDS011;58302;51.446;-2.000;2023-04-01T22:07:19;4.68;;;2.55;;
55300;SDS011;58302;51.446;-2.000;2023-04-01T22:09:53;4.22;;;2.67;;
55300;SDS011;58302;51.446;-2.000;2023-04-01T22:12:35;4.63;;;2.28;;
55300;SDS011;58302;51.446;-2.000;2023-04-01T22:18:19;4.35;;;2.83;;
55300;SDS011;58302;51.446;-2.000;2023-04-01T22:21:05;3.85;;;3.40;;
55300;SDS011;58302;51.446;-2.000;2023-04-01T22:23:46;4.75;;;3.05;;
55300;SDS011;58302;51.446;-2.000;2023-04-01T22:31:52;6.95;;;3.95;;
55300;SDS011;58302;51.446;-2.000;2023-04-01T22:45:23;4.28;;;3.78;;
55300;SDS011;58302;51.446;-2.000;2023-04-01T22:56:18;4.63;;;4.00;;
55300;SDS011;58302;51.446;-2.000;2023-04-01T22:58:50;3.47;;;3.17;;
55300;SDS011;58302;51.446;-2.000;2023-04-01T23:01:24;3.88;;;3.33;;
55300;SDS011;58302;51.446;-2.000;2023-04-01T23:03:54;4.82;;;4.13;;
55300;SDS011;58302;51.446;-2.000;2023-04-01T23:06:24;5.53;;;3.70;;
55300;SDS011;58302;51.446;-2.000;2023-04-01T23:11:39;6.80;;;4.65;;
55300;SDS011;58302;51.446;-2.000;2023-04-01T23:14:30;6.38;;;4.45;;
55300;SDS011;58302;51.446;-2.000;2023-04-01T23:20:10;4.47;;;3.78;;
55300;SDS011;58302;51.446;-2.000;2023-04-01T23:28:19;4.68;;;3.35;;
55300;SDS011;58302;51.446;-2.000;2023-04-01T23:30:58;5.88;;;4.20;;
55300;SDS011;58302;51.446;-2.000;2023-04-01T23:33:28;4.47;;;3.53;;
55300;SDS011;58302;51.446;-2.000;2023-04-01T23:35:59;6.43;;;4.28;;
55300;SDS011;58302;51.446;-2.000;2023-04-01T23:38:34;6.70;;;4.82;;
55300;SDS011;58302;51.446;-2.000;2023-04-01T23:41:02;4.90;;;3.45;;
55300;SDS011;58302;51.446;-2.000;2023-04-01T23:43:30;5.07;;;3.28;;
55300;SDS011;58302;51.446;-2.000;2023-04-01T23:46:01;5.93;;;3.53;;
55300;SDS011;58302;51.446;-2.000;2023-04-01T23:48:38;4.93;;;3.63;;
55300;SDS011;58302;51.446;-2.000;2023-04-01T23:53:48;7.43;;;4.55;;
55300;SDS011;58302;51.446;-2.000;2023-04-01T23:56:31;6.50;;;4.28;;
55300;SDS011;58302;51.446;-2.000;2023-04-01T23:59:02;9.07;;;4.47;;
